Time;durP1;ratioP1;P1;durP2;ratioP2;P2;SDS_P1;SDS_P2;PMS_P1;PMS_P2;Temp;Humidity;BMP_temperature;BMP_pressure;BME280_temperature;BME280_humidity;BME280_pressure;Samples;Min_cycle;Max_cycle;Signal;HPM_P1;HPM_P2
2022/12/10 00:01:51;;;;;;;65.85;25.67;;;-0.70;99.90;;;;;;5096311;28;20036;-63
2022/12/10 00:04:18;;;;;;;69.50;27.27;;;;;;;;;;5095999;28;20089;-63
2022/12/10 00:06:44;;;;;;;64.97;27.42;;;;;;;;;;5095713;28;20039;-64
2022/12/10 00:09:12;;;;;;;69.85;28.92;;;-0.30;99.90;;;;;;5077716;28;20485;-63
2022/12/10 00:11:39;;;;;;;71.95;29.27;;;-0.30;99.90;;;;;;5095724;28;20123;-63
2022/12/10 00:14:06;;;;;;;61.80;26.52;;;;;;;;;;5096006;28;20036;-63
2022/12/10 00:16:33;;;;;;;69.50;29.05;;;;;;;;;;5095533;28;20512;-63
2022/12/10 00:18:59;;;;;;;70.97;27.05;;;;;;;;;;5095686;28;20516;-63
2022/12/10 00:21:28;;;;;;;65.90;28.33;;;-0.40;99.90;;;;;;5095791;28;20036;-63
2022/12/10 00:23:54;;;;;;;71.05;28.27;;;;;;;;;;5082130;28;20028;-63
2022/12/10 00:26:26;;;;;;;69.70;27.63;;;-0.20;99.90;;;;;;5095753;28;20046;-63
2022/12/10 00:28:52;;;;;;;68.20;28.23;;;;;;;;;;5094951;28;20056;-63
2022/12/10 00:31:19;;;;;;;69.80;28.48;;;-0.10;99.90;;;;;;5095581;28;20044;-63
2022/12/10 00:33:45;;;;;;;70.60;26.60;;;;;;;;;;5095573;28;20040;-63
2022/12/10 00:36:13;;;;;;;65.05;26.75;;;0.00;99.90;;;;;;5095369;28;20040;-63
2022/12/10 00:38:40;;;;;;;64.15;27.55;;;-0.20;99.90;;;;;;5077547;28;20050;-63
2022/12/10 00:41:06;;;;;;;66.63;28.10;;;;;;;;;;5095249;28;20378;-63
2022/12/10 00:43:32;;;;;;;66.63;29.73;;;;;;;;;;5095422;28;20048;-64
2022/12/10 00:45:59;;;;;;;65.90;28.83;;;;;;;;;;5095097;28;20432;-63
2022/12/10 00:48:25;;;;;;;69.70;29.95;;;;;;;;;;5076925;28;20119;-64
2022/12/10 00:50:56;;;;;;;69.82;27.88;;;-0.40;99.90;;;;;;5081936;28;20158;-64
2022/12/10 00:53:23;;;;;;;65.22;27.65;;;-0.20;99.90;;;;;;5094978;28;20040;-63
2022/12/10 00:55:49;;;;;;;71.53;29.92;;;;;;;;;;5094918;28;20043;-64
2022/12/10 00:58:15;;;;;;;74.53;29.85;;;;;;;;;;5076655;28;20036;-63
2022/12/10 01:00:41;;;;;;;69.18;27.73;;;-0.40;99.90;;;;;;5094820;28;20050;-63
2022/12/10 01:03:07;;;;;;;64.65;29.27;;;;;;;;;;5094656;28;20040;-64
2022/12/10 01:05:33;;;;;;;65.90;28.63;;;;;;;;;;5094850;28;20036;-63
2022/12/10 01:07:59;;;;;;;65.75;27.35;;;;;;;;;;5076752;28;20100;-64
2022/12/10 01:10:25;;;;;;;75.65;28.85;;;;;;;;;;5094595;28;20055;-64
2022/12/10 01:12:51;;;;;;;67.75;28.60;;;;;;;;;;5094600;28;20050;-63
2022/12/10 01:15:17;;;;;;;68.53;28.27;;;;;;;;;;5094799;28;20074;-64
2022/12/10 01:17:42;;;;;;;62.55;27.27;;;;;;;;;;5094527;28;20040;-63
2022/12/10 01:20:09;;;;;;;70.10;29.13;;;-0.30;99.90;;;;;;5094094;28;20036;-63
2022/12/10 01:22:35;;;;;;;78.38;31.23;;;;;;;;;;5094339;28;20063;-63
2022/12/10 01:25:00;;;;;;;70.30;28.42;;;;;;;;;;5081486;28;20094;-63
2022/12/10 01:27:27;;;;;;;69.57;29.13;;;;;;;;;;5097734;28;20043;-63
2022/12/10 01:29:53;;;;;;;73.03;29.20;;;;;;;;;;5086238;28;20052;-63
2022/12/10 01:32:19;;;;;;;75.47;29.67;;;;;;;;;;5075958;28;20074;-64
2022/12/10 01:34:44;;;;;;;69.30;30.95;;;;;;;;;;5094211;28;20073;-63
2022/12/10 01:37:11;;;;;;;85.18;30.23;;;;;;;;;;5076138;28;20047;-63
2022/12/10 01:39:37;;;;;;;75.13;29.50;;;;;;;;;;5094338;28;20039;-63
2022/12/10 01:42:03;;;;;;;69.18;27.77;;;;;;;;;;5093023;28;20071;-63
2022/12/10 01:44:29;;;;;;;72.45;29.23;;;;;;;;;;5094108;28;20072;-63
2022/12/10 01:47:00;;;;;;;73.22;28.70;;;-0.50;99.90;;;;;;5093676;28;20452;-64
2022/12/10 01:49:35;;;;;;;69.03;29.02;;;-0.60;99.90;;;;;;5094121;28;20075;-63
2022/12/10 01:52:01;;;;;;;68.35;29.65;;;;;;;;;;5093599;28;20081;-64
2022/12/10 01:54:34;;;;;;;75.35;29.60;;;-0.70;99.90;;;;;;5093691;28;20040;-62
2022/12/10 01:57:07;;;;;;;72.15;30.75;;;-0.50;99.90;;;;;;5075437;28;20055;-64
2022/12/10 01:59:34;;;;;;;71.10;30.27;;;-0.60;99.90;;;;;;5075462;28;20155;-63
2022/12/10 02:02:40;;;;;;;78.70;32.20;;;-0.50;99.90;;;;;;5075354;28;20043;-63
2022/12/10 02:05:27;;;;;;;74.78;30.30;;;-0.70;99.90;;;;;;5093456;28;20161;-64
2022/12/10 02:07:53;;;;;;;80.50;32.28;;;;;;;;;;5075201;28;20047;-64
2022/12/10 02:10:42;;;;;;;73.47;29.80;;;;;;;;;;5074943;28;20036;-63
2022/12/10 02:13:23;;;;;;;80.03;32.35;;;-0.70;99.90;;;;;;5075309;28;20525;-64
2022/12/10 02:15:56;;;;;;;78.70;30.13;;;-0.70;99.90;;;;;;5075030;28;20040;-64
2022/12/10 02:18:29;;;;;;;73.45;30.20;;;-0.90;99.90;;;;;;5093603;28;20051;-63
2022/12/10 02:21:00;;;;;;;73.15;29.70;;;-0.80;99.90;;;;;;5093579;28;20047;-63
2022/12/10 02:23:30;;;;;;;78.60;29.77;;;-0.90;99.90;;;;;;5089830;28;20048;-63
2022/12/10 02:26:05;;;;;;;82.57;30.90;;;;;;;;;;5090281;28;20431;-64
2022/12/10 02:28:41;;;;;;;58.13;24.38;;;-0.80;99.90;;;;;;5074838;28;20051;-64
2022/12/10 02:31:11;;;;;;;71.68;29.67;;;-1.00;99.90;;;;;;5073085;28;20409;-63
2022/12/10 02:33:40;;;;;;;81.47;33.40;;;-0.80;99.90;;;;;;5075055;28;20040;-63
2022/12/10 02:36:08;;;;;;;78.45;31.00;;;-1.10;99.90;;;;;;5093146;28;20040;-64
2022/12/10 02:38:37;;;;;;;80.97;31.13;;;-1.10;99.90;;;;;;5093323;28;20040;-63
2022/12/10 02:41:07;;;;;;;77.93;30.75;;;-1.00;99.90;;;;;;5093116;28;20051;-63
2022/12/10 02:43:34;;;;;;;77.45;31.25;;;;;;;;;;5074975;28;20044;-63
2022/12/10 02:46:03;;;;;;;82.25;30.05;;;-1.00;99.90;;;;;;5074848;28;20086;-64
2022/12/10 02:48:30;;;;;;;84.38;31.58;;;-1.00;99.90;;;;;;5093193;28;20075;-63
2022/12/10 02:50:56;;;;;;;82.22;30.05;;;;;;;;;;5092879;28;20044;-63
2022/12/10 02:53:22;;;;;;;86.82;31.50;;;;;;;;;;5074688;28;20070;-63
2022/12/10 02:56:08;;;;;;;82.60;31.95;;;-0.70;99.90;;;;;;5092837;28;20040;-63
2022/12/10 02:58:39;;;;;;;;;;;-1.00;99.90;;;;;;5075143;28;20055;-63
2022/12/10 03:01:32;;;;;;;77.30;29.30;;;-0.70;99.90;;;;;;5074743;28;19970;-63
2022/12/10 03:04:01;;;;;;;83.20;31.70;;;;;;;;;;5093004;28;20118;-63
2022/12/10 03:06:27;;;;;;;85.35;31.60;;;;;;;;;;5074679;28;20127;-63
2022/12/10 03:09:24;;;;;;;77.70;30.05;;;-0.90;99.90;;;;;;5057826;28;20040;-63
2022/12/10 03:12:01;;;;;;;90.68;32.30;;;-0.80;99.90;;;;;;5065646;28;20060;-63
2022/12/10 03:14:32;;;;;;;85.20;33.28;;;-0.90;99.90;;;;;;5093412;28;20036;-64
2022/12/10 03:17:02;;;;;;;83.20;32.78;;;-1.00;99.90;;;;;;5096777;28;20036;-63
2022/12/10 03:19:42;;;;;;;81.03;30.73;;;-1.10;99.90;;;;;;5078627;28;20050;-63
2022/12/10 03:22:08;;;;;;;82.32;32.40;;;;;;;;;;5096681;28;20135;-64
2022/12/10 03:24:35;;;;;;;81.20;33.08;;;-0.90;99.90;;;;;;5078759;28;20554;-63
2022/12/10 03:27:01;;;;;;;86.35;31.75;;;;;;;;;;5078251;28;20040;-63
2022/12/10 03:29:36;;;;;;;79.65;31.40;;;-1.10;99.90;;;;;;5078181;28;20056;-63
2022/12/10 03:32:02;;;;;;;79.30;31.17;;;;;;;;;;5091768;28;20044;-64
2022/12/10 03:34:28;;;;;;;78.78;29.70;;;-1.00;99.90;;;;;;5096532;28;20036;-63
2022/12/10 03:36:54;;;;;;;82.32;32.40;;;;;;;;;;5078101;28;20072;-63
2022/12/10 03:39:21;;;;;;;75.78;30.63;;;;;;;;;;5078107;28;20514;-64
2022/12/10 03:41:47;;;;;;;82.30;29.52;;;;;;;;;;5078251;28;20129;-63
2022/12/10 03:44:13;;;;;;;85.35;31.30;;;;;;;;;;5078473;28;20083;-63
2022/12/10 03:46:39;;;;;;;82.50;31.95;;;;;;;;;;5096272;28;20036;-63
2022/12/10 03:49:05;;;;;;;83.30;31.10;;;;;;;;;;5096393;28;20035;-63
2022/12/10 03:51:31;;;;;;;84.72;30.85;;;;;;;;;;5095953;28;20044;-63
2022/12/10 03:53:57;;;;;;;81.25;30.67;;;;;;;;;;5095962;28;20047;-64
2022/12/10 03:56:23;;;;;;;75.28;30.88;;;;;;;;;;5096020;28;20115;-63
2022/12/10 03:58:49;;;;;;;79.63;30.73;;;;;;;;;;5077900;28;20079;-63
2022/12/10 04:01:15;;;;;;;78.40;30.40;;;;;;;;;;5077880;28;20048;-63
2022/12/10 04:03:42;;;;;;;83.50;30.17;;;-1.20;99.90;;;;;;5096092;28;20039;-63
2022/12/10 04:06:10;;;;;;;82.88;32.00;;;;;;;;;;5095983;28;20044;-64
2022/12/10 04:08:36;;;;;;;75.15;29.13;;;;;;;;;;5095651;28;20047;-63
2022/12/10 04:11:06;;;;;;;79.82;30.42;;;-1.40;99.90;;;;;;5077633;28;20043;-63
2022/12/10 04:16:27;;;;;;;74.72;30.00;;;;;;;;;;5077561;28;20044;-63
2022/12/10 04:18:59;;;;;;;81.70;32.38;;;-1.00;99.90;;;;;;5077319;28;20044;-63
2022/12/10 04:26:56;;;;;;;81.75;32.03;;;;;;;;;;5094168;28;20338;-64
2022/12/10 04:29:25;;;;;;;84.32;31.42;;;-1.00;99.90;;;;;;5076951;28;20456;-64
2022/12/10 04:31:52;;;;;;;81.88;32.85;;;;;;;;;;5077418;28;20044;-63
2022/12/10 04:34:18;;;;;;;85.18;32.50;;;;;;;;;;5076889;28;20039;-62
2022/12/10 04:36:44;;;;;;;86.82;33.83;;;;;;;;;;5060473;28;20534;-63
2022/12/10 04:39:13;;;;;;;80.22;32.35;;;;;;;;;;5077050;28;20032;-64
2022/12/10 04:41:43;;;;;;;95.05;33.40;;;;;;;;;;5095123;28;20498;-63
2022/12/10 04:44:09;;;;;;;96.43;34.33;;;;;;;;;;5077141;28;20055;-64
2022/12/10 04:46:35;;;;;;;90.35;34.45;;;;;;;;;;5077014;28;20048;-63
2022/12/10 04:49:02;;;;;;;95.43;34.35;;;-0.60;99.90;;;;;;5094904;28;20055;-64
2022/12/10 04:51:28;;;;;;;92.43;34.30;;;;;;;;;;5091180;28;20058;-63
2022/12/10 04:53:54;;;;;;;95.53;34.80;;;-0.90;99.90;;;;;;5077112;28;20036;-63
2022/12/10 04:56:20;;;;;;;95.70;35.72;;;;;;;;;;5094914;28;20042;-64
2022/12/10 04:58:46;;;;;;;99.13;34.03;;;;;;;;;;5095068;28;20568;-63
2022/12/10 05:01:12;;;;;;;99.45;36.30;;;-0.90;99.90;;;;;;5077003;28;20040;-63
2022/12/10 05:03:38;;;;;;;99.65;36.13;;;;;;;;;;5094999;28;20115;-63
2022/12/10 05:06:06;;;;;;;102.82;35.38;;;-1.00;99.90;;;;;;5094703;28;20500;-63
2022/12/10 05:08:32;;;;;;;92.13;35.10;;;;;;;;;;5076576;28;20044;-63
2022/12/10 05:11:03;;;;;;;102.00;35.58;;;-0.80;99.90;;;;;;5081965;28;20146;-65
2022/12/10 05:13:29;;;;;;;97.45;34.28;;;;;;;;;;5094848;28;20101;-64
2022/12/10 05:15:55;;;;;;;97.50;35.08;;;;;;;;;;5094584;28;20440;-63
2022/12/10 05:18:21;;;;;;;97.63;34.13;;;;;;;;;;5076613;28;20044;-64
2022/12/10 05:20:47;;;;;;;100.63;35.65;;;;;;;;;;5076290;28;20048;-63
2022/12/10 05:23:28;;;;;;;94.38;33.83;;;;;;;;;;5094699;28;20044;-63
2022/12/10 05:26:07;;;;;;;97.63;34.65;;;-1.00;99.90;;;;;;5093965;28;20036;-64
2022/12/10 05:28:39;;;;;;;91.22;32.88;;;-1.20;99.90;;;;;;5094331;28;20071;-63
2022/12/10 05:31:05;;;;;;;89.63;33.70;;;;;;;;;;5062769;28;20122;-63
2022/12/10 05:33:31;;;;;;;103.35;34.47;;;;;;;;;;5094272;28;20032;-64
2022/12/10 05:36:02;;;;;;;97.47;34.97;;;;;;;;;;5075901;28;20036;-64
2022/12/10 05:38:29;;;;;;;109.50;37.30;;;-1.10;99.90;;;;;;5093766;28;20541;-63
2022/12/10 05:40:55;;;;;;;97.85;35.55;;;;;;;;;;5059416;28;20053;-64
2022/12/10 05:43:22;;;;;;;97.93;36.67;;;;;;;;;;5094339;28;20039;-63
2022/12/10 05:45:48;;;;;;;112.20;34.75;;;;;;;;;;5075776;28;20056;-64
2022/12/10 05:48:15;;;;;;;110.00;35.55;;;-0.70;99.90;;;;;;5075827;28;20083;-63
2022/12/10 05:50:42;;;;;;;105.78;35.17;;;;;;;;;;5075447;28;20059;-64
2022/12/10 05:53:08;;;;;;;103.70;36.33;;;;;;;;;;5094004;28;20101;-63
2022/12/10 05:55:34;;;;;;;109.35;34.13;;;;;;;;;;5075389;28;20043;-64
2022/12/10 05:58:00;;;;;;;150.55;32.72;;;;;;;;;;5075607;28;20081;-64
2022/12/10 06:00:27;;;;;;;105.32;33.03;;;-1.00;99.90;;;;;;5093903;28;20075;-64
2022/12/10 06:02:54;;;;;;;167.93;33.03;;;;;;;;;;5093641;28;20036;-64
2022/12/10 06:05:20;;;;;;;94.63;30.02;;;;;;;;;;5093216;28;20028;-64
2022/12/10 06:07:46;;;;;;;111.90;30.63;;;;;;;;;;5093824;28;20408;-63
2022/12/10 06:10:12;;;;;;;117.78;30.80;;;;;;;;;;5093348;28;20609;-63
2022/12/10 06:12:38;;;;;;;95.57;29.33;;;;;;;;;;5075424;28;20115;-63
2022/12/10 06:15:05;;;;;;;109.68;29.42;;;-1.10;99.90;;;;;;5075128;28;20094;-63
2022/12/10 06:17:31;;;;;;;127.68;31.60;;;;;;;;;;5075251;28;20065;-63
2022/12/10 06:19:57;;;;;;;120.88;32.40;;;;;;;;;;5075001;28;20460;-63
2022/12/10 06:22:23;;;;;;;179.85;33.28;;;;;;;;;;5093509;28;20068;-63
2022/12/10 06:24:49;;;;;;;199.05;35.55;;;;;;;;;;5075095;28;20051;-64
2022/12/10 06:27:15;;;;;;;202.70;33.90;;;;;;;;;;5093364;28;20398;-62
2022/12/10 06:29:41;;;;;;;124.88;30.98;;;-1.10;99.90;;;;;;5074447;28;20056;-64
2022/12/10 06:32:07;;;;;;;187.00;34.17;;;;;;;;;;5074223;28;20048;-63
2022/12/10 06:34:33;;;;;;;120.88;29.58;;;;;;;;;;5074431;28;20549;-63
2022/12/10 06:36:59;;;;;;;190.50;30.67;;;;;;;;;;5082469;28;20114;-63
2022/12/10 06:39:25;;;;;;;139.52;31.30;;;;;;;;;;5075667;28;20036;-63
2022/12/10 06:41:51;;;;;;;129.77;29.52;;;;;;;;;;5098641;28;20076;-63
2022/12/10 06:44:17;;;;;;;106.53;29.13;;;;;;;;;;5095598;28;20055;-63
2022/12/10 06:46:43;;;;;;;97.00;31.85;;;;;;;;;;5064017;28;20086;-62
2022/12/10 06:49:09;;;;;;;124.28;32.88;;;;;;;;;;5091931;28;20063;-64
2022/12/10 06:51:35;;;;;;;105.97;30.35;;;;;;;;;;5088930;28;20040;-64
2022/12/10 06:54:01;;;;;;;94.20;31.55;;;;;;;;;;5074834;28;20433;-63
2022/12/10 06:56:27;;;;;;;113.53;33.42;;;;;;;;;;5092630;28;20043;-63
2022/12/10 06:58:53;;;;;;;93.43;30.02;;;;;;;;;;5074835;28;20473;-63
2022/12/10 07:01:22;;;;;;;108.15;31.08;;;-1.10;99.90;;;;;;5082125;28;20054;-64
2022/12/10 07:03:49;;;;;;;110.60;32.45;;;-1.30;99.90;;;;;;5082551;28;20111;-64
2022/12/10 07:06:15;;;;;;;118.20;32.92;;;;;;;;;;5078649;28;20039;-64
2022/12/10 07:08:41;;;;;;;113.70;31.63;;;;;;;;;;5067764;28;20122;-63
2022/12/10 07:11:09;;;;;;;154.60;33.28;;;-1.00;99.90;;;;;;5074438;28;20124;-63
2022/12/10 07:13:35;;;;;;;134.57;31.33;;;;;;;;;;5092853;28;20028;-63
2022/12/10 07:16:01;;;;;;;130.02;32.33;;;;;;;;;;5074434;28;20444;-63
2022/12/10 07:18:27;;;;;;;131.02;32.63;;;;;;;;;;5096691;28;20036;-63
2022/12/10 07:20:53;;;;;;;137.05;31.50;;;;;;;;;;5074522;28;20036;-63
2022/12/10 07:23:20;;;;;;;125.45;31.23;;;;;;;;;;5081476;28;20054;-63
2022/12/10 07:25:46;;;;;;;107.00;29.95;;;;;;;;;;5107546;28;20498;-65
2022/12/10 07:28:12;;;;;;;91.45;28.17;;;;;;;;;;5081124;28;20097;-64
2022/12/10 07:30:38;;;;;;;97.30;29.38;;;;;;;;;;5074044;28;20406;-64
2022/12/10 07:33:04;;;;;;;99.07;29.33;;;;;;;;;;5092432;28;20045;-64
2022/12/10 07:35:30;;;;;;;91.07;29.65;;;;;;;;;;5075864;28;20051;-60
2022/12/10 07:37:56;;;;;;;103.07;28.05;;;;;;;;;;5088284;28;20040;-64
2022/12/10 07:40:22;;;;;;;120.55;32.15;;;;;;;;;;5092961;28;20039;-63
2022/12/10 07:42:48;;;;;;;112.15;29.65;;;;;;;;;;5093686;28;20496;-63
2022/12/10 07:45:14;;;;;;;127.72;32.50;;;;;;;;;;5110453;28;20039;-64
2022/12/10 07:47:40;;;;;;;155.82;35.72;;;;;;;;;;5111415;28;20798;-64
2022/12/10 07:50:06;;;;;;;124.90;31.88;;;-1.00;99.90;;;;;;5087908;28;20036;-63
2022/12/10 07:52:32;;;;;;;113.20;30.60;;;;;;;;;;5083169;28;20365;-64
2022/12/10 07:54:58;;;;;;;153.98;35.63;;;;;;;;;;5073187;28;20036;-64
2022/12/10 07:57:24;;;;;;;170.82;35.55;;;;;;;;;;5092549;28;20466;-63
2022/12/10 07:59:50;;;;;;;118.55;31.65;;;;;;;;;;5074272;28;20044;-64
2022/12/10 08:02:16;;;;;;;135.65;30.73;;;;;;;;;;5077844;28;20127;-64
2022/12/10 08:04:42;;;;;;;129.77;33.72;;;;;;;;;;5095946;28;20040;-64
2022/12/10 08:07:08;;;;;;;142.00;33.67;;;;;;;;;;5095998;28;20032;-64
2022/12/10 08:09:34;;;;;;;137.85;33.08;;;;;;;;;;5096222;28;20044;-63
2022/12/10 08:12:00;;;;;;;148.35;33.95;;;;;;;;;;5077585;28;20040;-63
2022/12/10 08:14:26;;;;;;;117.55;33.10;;;-1.10;99.90;;;;;;5077740;28;20040;-63
2022/12/10 08:16:52;;;;;;;168.32;33.13;;;;;;;;;;5077492;28;20551;-64
2022/12/10 08:19:18;;;;;;;101.10;29.08;;;;;;;;;;5095881;28;20040;-64
2022/12/10 08:21:44;;;;;;;144.40;32.10;;;;;;;;;;5077826;28;20397;-63
2022/12/10 08:24:10;;;;;;;110.43;30.58;;;;;;;;;;5077344;28;20044;-64
2022/12/10 08:26:37;;;;;;;122.72;30.50;;;;;;;;;;5077363;28;20055;-63
2022/12/10 08:29:03;;;;;;;120.55;31.00;;;;;;;;;;5076860;28;20064;-64
2022/12/10 08:31:29;;;;;;;122.60;31.33;;;;;;;;;;5077279;28;20131;-63
2022/12/10 08:33:55;;;;;;;92.10;27.70;;;;;;;;;;5076131;28;20039;-63
2022/12/10 08:36:22;;;;;;;120.65;29.88;;;;;;;;;;5077156;28;20123;-62
2022/12/10 08:38:47;;;;;;;114.63;31.02;;;;;;;;;;5060785;28;20376;-62
2022/12/10 08:41:20;;;;;;;115.28;30.40;;;-1.00;99.90;;;;;;5077334;28;20047;-63
2022/12/10 08:43:47;;;;;;;119.32;32.35;;;-1.10;99.90;;;;;;5095084;28;20053;-63
2022/12/10 08:46:14;;;;;;;108.40;31.15;;;-1.10;99.90;;;;;;5095073;28;20046;-63
2022/12/10 08:48:40;;;;;;;125.47;31.17;;;;;;;;;;5095340;28;20043;-63
2022/12/10 08:51:07;;;;;;;141.60;33.65;;;;;;;;;;5090254;28;20089;-63
2022/12/10 08:53:33;;;;;;;132.13;33.20;;;;;;;;;;5077311;28;20044;-64
2022/12/10 08:55:59;;;;;;;114.72;33.13;;;;;;;;;;5094922;28;20120;-65
2022/12/10 08:58:25;;;;;;;116.32;32.25;;;;;;;;;;5094911;28;20055;-64
2022/12/10 09:00:51;;;;;;;132.65;34.08;;;;;;;;;;5076652;28;20486;-65
2022/12/10 09:03:17;;;;;;;155.43;35.45;;;;;;;;;;5094587;28;20048;-64
2022/12/10 09:05:44;;;;;;;101.40;29.65;;;;;;;;;;5076916;28;20047;-64
2022/12/10 09:08:10;;;;;;;143.35;35.40;;;;;;;;;;5094976;28;20036;-64
2022/12/10 09:10:37;;;;;;;162.18;34.63;;;-1.20;99.90;;;;;;5094627;28;20520;-65
2022/12/10 09:13:03;;;;;;;141.02;35.63;;;;;;;;;;5094013;28;20055;-65
2022/12/10 09:15:29;;;;;;;121.35;32.88;;;;;;;;;;5094707;28;20058;-65
2022/12/10 09:17:55;;;;;;;107.50;31.25;;;;;;;;;;5075978;28;20438;-65
2022/12/10 09:20:21;;;;;;;156.65;34.83;;;;;;;;;;5082083;28;20123;-63
2022/12/10 09:22:47;;;;;;;106.47;31.02;;;;;;;;;;5089020;28;20555;-61
2022/12/10 09:25:15;;;;;;;118.70;30.27;;;;;;;;;;5081773;28;20062;-63
2022/12/10 09:27:41;;;;;;;133.65;32.75;;;;;;;;;;5088006;28;20047;-61
2022/12/10 09:30:07;;;;;;;126.80;32.75;;;-0.90;99.90;;;;;;5092857;28;20047;-63
2022/12/10 09:32:33;;;;;;;135.32;32.30;;;;;;;;;;5083690;28;20085;-61
2022/12/10 09:34:59;;;;;;;117.70;30.83;;;;;;;;;;5112569;28;20035;-65
2022/12/10 09:37:25;;;;;;;118.38;30.83;;;;;;;;;;5075525;28;20040;-63
2022/12/10 09:39:51;;;;;;;133.70;31.23;;;-0.80;99.90;;;;;;5088684;28;20035;-62
2022/12/10 09:42:32;;;;;;;129.32;31.40;;;-0.80;99.90;;;;;;5075218;28;20122;-60
2022/12/10 09:45:22;;;;;;;132.52;32.42;;;-0.60;99.90;;;;;;5110682;28;20070;-63
2022/12/10 09:48:00;;;;;;;129.07;30.20;;;;;;;;;;5090083;28;20505;-62
2022/12/10 09:50:36;;;;;;;151.35;31.65;;;;;;;;;;5109945;28;20031;-64
2022/12/10 09:53:03;;;;;;;113.13;30.45;;;;;;;;;;5093089;28;20047;-63
2022/12/10 09:55:35;;;;;;;140.43;32.38;;;;;;;;;;5108766;28;20065;-63
2022/12/10 09:58:03;;;;;;;157.65;33.95;;;-0.80;99.90;;;;;;5110682;28;20167;-63
2022/12/10 10:00:29;;;;;;;133.40;32.70;;;;;;;;;;5100838;28;20100;-63
2022/12/10 10:03:01;;;;;;;134.20;33.05;;;-0.70;99.90;;;;;;5111371;28;20490;-63
2022/12/10 10:05:32;;;;;;;115.70;30.95;;;-0.60;99.90;;;;;;5089631;28;20093;-63
2022/12/10 10:08:00;;;;;;;148.95;34.60;;;;;;;;;;5101364;28;20079;-65
2022/12/10 10:10:25;;;;;;;134.68;30.38;;;;;;;;;;5109525;28;20041;-63
2022/12/10 10:12:53;;;;;;;142.48;34.20;;;;;;;;;;5089993;28;20039;-60
2022/12/10 10:15:24;;;;;;;180.57;36.55;;;-0.70;99.90;;;;;;5107833;28;20032;-64
2022/12/10 10:17:53;;;;;;;156.27;34.45;;;;;;;;;;5084109;28;20039;-65
2022/12/10 10:20:19;;;;;;;144.05;32.83;;;;;;;;;;5087441;28;20032;-63
2022/12/10 10:22:45;;;;;;;124.68;34.70;;;-0.70;99.90;;;;;;5087972;28;20379;-62
2022/12/10 10:25:17;;;;;;;132.55;34.72;;;-0.60;99.90;;;;;;5080115;28;20035;-61
2022/12/10 10:27:43;;;;;;;156.77;33.90;;;;;;;;;;5076787;28;20043;-62
2022/12/10 10:30:21;;;;;;;140.60;32.83;;;-0.60;99.90;;;;;;5086923;28;20039;-62
2022/12/10 10:32:53;;;;;;;140.52;33.65;;;-0.70;99.90;;;;;;5060821;28;20165;-66
2022/12/10 10:35:26;;;;;;;135.90;33.85;;;-0.60;99.90;;;;;;5105758;28;20028;-64
2022/12/10 10:37:57;;;;;;;143.25;33.63;;;;;;;;;;5089098;28;20047;-63
2022/12/10 10:40:23;;;;;;;147.52;35.50;;;;;;;;;;5107159;28;20040;-62
2022/12/10 10:42:49;;;;;;;122.38;35.72;;;;;;;;;;5109193;28;20032;-63
2022/12/10 10:45:30;;;;;;;120.40;33.42;;;-0.70;99.90;;;;;;5093718;28;20035;-64
2022/12/10 10:48:17;;;;;;;124.97;34.80;;;-0.70;99.90;;;;;;5104792;28;20508;-64
2022/12/10 10:50:47;;;;;;;135.63;34.47;;;-0.70;99.90;;;;;;5101791;28;20039;-64
2022/12/10 10:53:24;;;;;;;134.52;32.83;;;-0.60;99.90;;;;;;5092855;28;20058;-63
2022/12/10 10:55:52;;;;;;;111.20;32.60;;;;;;;;;;5110747;28;20378;-65
2022/12/10 10:58:19;;;;;;;128.52;32.22;;;-0.70;99.90;;;;;;5111211;28;20044;-59
2022/12/10 11:00:59;;;;;;;116.55;32.03;;;;;;;;;;5091177;28;20443;-62
2022/12/10 11:03:27;;;;;;;114.07;32.70;;;-0.70;99.90;;;;;;5083311;28;20048;-64
2022/12/10 11:05:56;;;;;;;139.43;33.42;;;-0.60;99.90;;;;;;5092622;28;20052;-64
2022/12/10 11:08:25;;;;;;;123.13;32.25;;;-0.50;99.90;;;;;;5082617;28;20052;-64
2022/12/10 11:11:16;;;;;;;138.20;33.35;;;-0.50;99.90;;;;;;5099280;28;20051;-63
2022/12/10 11:13:42;;;;;;;126.88;34.08;;;;;;;;;;5064114;28;20120;-63
2022/12/10 11:16:20;;;;;;;142.18;35.00;;;;;;;;;;5078030;28;20040;-63
2022/12/10 11:19:04;;;;;;;117.97;33.40;;;-0.60;99.90;;;;;;5103761;28;20044;-64
2022/12/10 11:21:31;;;;;;;134.65;33.05;;;-0.40;99.90;;;;;;5106850;28;20047;-63
2022/12/10 11:23:58;;;;;;;129.23;33.75;;;-0.40;99.90;;;;;;5084494;28;20504;-64
2022/12/10 11:26:54;;;;;;;124.32;32.15;;;-0.50;99.90;;;;;;5082553;28;20044;-64
2022/12/10 11:29:51;;;;;;;119.55;31.48;;;-0.40;99.90;;;;;;5086721;28;20521;-65
2022/12/10 11:32:39;;;;;;;112.03;31.15;;;-0.20;99.90;;;;;;5085801;28;20565;-64
2022/12/10 11:35:28;;;;;;;109.03;31.58;;;;;;;;;;5078521;28;20068;-62
2022/12/10 11:38:10;;;;;;;115.63;30.90;;;;;;;;;;5047394;28;20515;-63
2022/12/10 11:40:45;;;;;;;148.20;35.22;;;;;;;;;;5090397;28;20032;-64
2022/12/10 11:43:26;;;;;;;134.40;29.67;;;-0.20;99.90;;;;;;5043915;28;20041;-62
2022/12/10 11:46:30;;;;;;;144.50;33.40;;;-0.10;99.90;;;;;;5085526;28;20043;-65
2022/12/10 11:49:11;;;;;;;148.40;33.78;;;;;;;;;;5094416;28;20047;-64
2022/12/10 11:51:55;;;;;;;125.88;33.78;;;;;;;;;;5103639;28;20402;-66
2022/12/10 11:54:20;;;;;;;126.95;35.00;;;;;;;;;;5077835;28;20051;-63
2022/12/10 11:57:05;;;;;;;108.90;33.05;;;-0.30;99.90;;;;;;5077184;28;20042;-63
2022/12/10 11:59:35;;;;;;;128.40;35.73;;;;;;;;;;5086580;28;20041;-63
2022/12/10 12:02:19;;;;;;;123.00;33.95;;;-0.20;99.90;;;;;;5111208;28;20042;-64
2022/12/10 12:04:45;;;;;;;125.07;33.58;;;;;;;;;;5114313;28;20039;-67
2022/12/10 12:07:16;;;;;;;121.60;34.30;;;-0.20;99.90;;;;;;5094915;28;20429;-64
2022/12/10 12:09:55;;;;;;;141.40;34.55;;;-0.10;99.90;;;;;;5093605;28;20048;-63
2022/12/10 12:12:27;;;;;;;102.72;32.42;;;;;;;;;;5088157;28;20523;-64
2022/12/10 12:15:04;;;;;;;130.25;35.05;;;;;;;;;;5097874;28;20514;-64
2022/12/10 12:17:35;;;;;;;116.30;33.08;;;;;;;;;;5080910;28;20043;-63
2022/12/10 12:20:20;;;;;;;136.85;36.15;;;-0.20;99.90;;;;;;5092626;28;20036;-67
2022/12/10 12:22:53;;;;;;;106.57;32.40;;;0.00;99.90;;;;;;5087889;28;20044;-67
2022/12/10 12:25:26;;;;;;;125.80;32.75;;;;;;;;;;5095123;28;20445;-63
2022/12/10 12:27:56;;;;;;;119.25;33.85;;;;;;;;;;5112938;28;20039;-64
2022/12/10 12:30:22;;;;;;;146.40;34.85;;;0.20;99.90;;;;;;5093227;28;20058;-62
2022/12/10 12:33:01;;;;;;;113.93;33.97;;;;;;;;;;5110666;28;20107;-64
2022/12/10 12:35:50;;;;;;;127.68;32.33;;;-0.10;99.90;;;;;;5108954;28;20036;-64
2022/12/10 12:38:33;;;;;;;106.13;30.88;;;;;;;;;;5110006;28;20444;-64
2022/12/10 12:41:26;;;;;;;101.47;31.27;;;0.00;99.90;;;;;;5092880;28;20554;-66
2022/12/10 12:44:18;;;;;;;95.72;28.77;;;0.10;99.90;;;;;;5093501;28;20397;-65
2022/12/10 12:46:47;;;;;;;94.82;27.75;;;0.00;99.90;;;;;;5090780;28;20044;-65
2022/12/10 12:49:20;;;;;;;96.40;28.70;;;;;;;;;;5091025;28;20489;-65
2022/12/10 12:51:51;;;;;;;95.13;29.35;;;;;;;;;;5109398;28;20131;-64
2022/12/10 12:54:17;;;;;;;122.43;33.30;;;;;;;;;;5113847;28;20047;-65
2022/12/10 12:56:46;;;;;;;104.70;31.77;;;;;;;;;;5089734;28;20097;-65
2022/12/10 12:59:34;;;;;;;99.55;28.73;;;0.10;99.90;;;;;;5109099;28;20066;-66
2022/12/10 13:02:20;;;;;;;97.63;29.65;;;;;;;;;;5109514;28;20562;-65
2022/12/10 13:04:46;;;;;;;;;;;;;;;;;;5111374;28;20050;-64
2022/12/10 13:07:15;;;;;;;97.78;30.40;;;0.20;99.90;;;;;;5085903;28;20006;-65
2022/12/10 13:09:45;;;;;;;107.90;33.33;;;;;;;;;;5091900;28;20035;-67
2022/12/10 13:12:28;;;;;;;111.43;32.78;;;;;;;;;;5091767;28;20042;-65
2022/12/10 13:14:56;;;;;;;99.82;30.88;;;;;;;;;;5108230;28;20051;-66
2022/12/10 13:17:36;;;;;;;94.38;29.55;;;;;;;;;;5109589;28;20059;-66
2022/12/10 13:20:26;;;;;;;92.40;29.90;;;0.20;99.90;;;;;;5093678;28;20450;-65
2022/12/10 13:22:58;;;;;;;98.57;30.58;;;0.20;99.90;;;;;;5090655;28;20072;-67
2022/12/10 13:25:50;;;;;;;94.50;28.13;;;0.10;99.90;;;;;;5112523;28;20074;-68
2022/12/10 13:28:26;;;;;;;91.85;29.73;;;-0.10;99.90;;;;;;5084225;28;20130;-68
2022/12/10 13:31:20;;;;;;;94.85;28.00;;;0.20;99.90;;;;;;5105582;28;20048;-67
2022/12/10 13:33:46;;;;;;;82.20;28.42;;;;;;;;;;5089256;28;20173;-69
2022/12/10 13:36:12;;;;;;;93.80;28.02;;;0.10;99.90;;;;;;5074750;28;20099;-69
2022/12/10 13:38:42;;;;;;;92.20;27.98;;;;;;;;;;5106001;28;20040;-67
2022/12/10 13:46:53;;;;;;;80.47;25.42;;;0.20;99.90;;;;;;5091961;28;20043;-65
2022/12/10 13:49:21;;;;;;;79.95;25.60;;;;;;;;;;5090186;28;20044;-65
2022/12/10 13:51:53;;;;;;;87.30;27.92;;;;;;;;;;5075862;28;20085;-62
2022/12/10 13:54:19;;;;;;;93.35;28.13;;;;;;;;;;5113064;28;20036;-66
2022/12/10 13:56:55;;;;;;;90.03;28.10;;;0.10;99.90;;;;;;5071369;28;20425;-64
2022/12/10 13:59:27;;;;;;;89.15;28.27;;;;;;;;;;5104801;28;20035;-68